createdAt,value
2019-03-31T00:02:30.761Z,99808.40
2019-03-31T00:07:59.211Z,99810.27
2019-03-31T00:10:29.222Z,99810.27
2019-03-31T00:12:59.248Z,99814.28
2019-03-31T00:15:48.107Z,99814.84
2019-03-31T00:18:18.048Z,99814.84
2019-03-31T00:21:06.890Z,99808.18
2019-03-31T00:23:36.911Z,99808.18
2019-03-31T00:26:25.700Z,99809.04
2019-03-31T00:31:51.102Z,99807.07
2019-03-31T00:34:21.012Z,99804.77
2019-03-31T00:36:52.857Z,99806.34
2019-03-31T00:45:38.009Z,99803.71
2019-03-31T00:51:33.772Z,99808.48
2019-03-31T00:54:45.704Z,99806.30
2019-03-31T01:08:53.977Z,99826.98
2019-03-31T01:11:34.562Z,99818.90
2019-03-31T01:20:12.882Z,99808.91
2019-03-31T01:28:40.053Z,99813.13
2019-03-31T01:31:50.440Z,99814.82
2019-03-31T01:34:59.778Z,99810.83
2019-03-31T01:40:20.102Z,99806.81
2019-03-31T01:42:50.206Z,99811.32
2019-03-31T01:48:27.500Z,99819.22
2019-03-31T01:54:17.346Z,99817.59
2019-03-31T02:00:01.788Z,99820.92
2019-03-31T02:03:10.741Z,99816.48
2019-03-31T02:05:40.746Z,99830.10
2019-03-31T02:14:02.407Z,99829.61
2019-03-31T02:19:41.536Z,99832.78
2019-03-31T02:22:11.400Z,99835.69
2019-03-31T02:24:41.488Z,99830.56
2019-03-31T02:35:51.928Z,99833.70
2019-03-31T02:38:22.041Z,99837.58
2019-03-31T02:43:41.076Z,99841.48
2019-03-31T02:49:20.168Z,99828.02
2019-03-31T03:04:14.829Z,99830.59
2019-03-31T03:16:38.744Z,99820.67
2019-03-31T03:19:08.668Z,99820.47
2019-03-31T03:24:33.938Z,99819.09
2019-03-31T03:27:03.975Z,99819.50
2019-03-31T03:29:34.006Z,99812.92
2019-03-31T03:33:10.913Z,99810.02
2019-03-31T03:38:15.990Z,99811.30
2019-03-31T03:43:59.612Z,99813.31
2019-03-31T03:49:33.024Z,99807.41
2019-03-31T03:55:09.790Z,99806.89
2019-03-31T03:57:39.720Z,99808.70
2019-03-31T04:06:01.318Z,99808.19
2019-03-31T04:08:31.287Z,99807.75
2019-03-31T04:11:38.624Z,99815.50
2019-03-31T04:17:15.431Z,99813.72
2019-03-31T04:25:42.146Z,99815.22
2019-03-31T04:28:12.159Z,99820.68
2019-03-31T04:30:42.181Z,99814.22
2019-03-31T04:39:27.452Z,99818.26
2019-03-31T04:48:05.282Z,99821.56
2019-03-31T04:50:54.057Z,99821.00
2019-03-31T04:54:03.068Z,99819.14
2019-03-31T04:59:31.400Z,99822.60
2019-03-31T05:02:01.339Z,99820.38
2019-03-31T05:04:31.336Z,99819.89
2019-03-31T05:07:40.260Z,99815.44
2019-03-31T05:13:16.319Z,99820.36
2019-03-31T05:21:27.679Z,99818.73
2019-03-31T05:24:17.911Z,99820.65
2019-03-31T05:29:54.956Z,99817.02
2019-03-31T05:33:02.571Z,99796.19
2019-03-31T05:36:11.586Z,99796.19
2019-03-31T05:52:51.457Z,99797.91
2019-03-31T06:01:38.019Z,99787.14
2019-03-31T06:04:08.228Z,99801.36
2019-03-31T06:06:38.462Z,99796.45
2019-03-31T06:12:43.213Z,99795.18
2019-03-31T06:18:26.240Z,99808.36
2019-03-31T06:32:36.498Z,99794.41
2019-03-31T06:44:07.519Z,99791.65
2019-03-31T06:49:44.481Z,99785.37
2019-03-31T06:57:53.821Z,99785.16
2019-03-31T07:04:12.359Z,99785.66
2019-03-31T07:12:20.194Z,99795.05
2019-03-31T07:14:50.117Z,99781.32
2019-03-31T07:17:20.083Z,99776.52
2019-03-31T07:20:29.054Z,99783.73
2019-03-31T07:22:59.354Z,99785.23
2019-03-31T07:25:29.287Z,99790.58
2019-03-31T07:27:59.294Z,99776.50
2019-03-31T07:33:54.120Z,99784.80
2019-03-31T07:36:24.173Z,99789.75
2019-03-31T07:39:13.122Z,99800.03
2019-03-31T07:41:55.539Z,99801.63
2019-03-31T07:47:21.266Z,99796.48
2019-03-31T07:49:51.247Z,99805.05
2019-03-31T07:52:21.159Z,99815.17
2019-03-31T07:54:51.221Z,99804.13
2019-03-31T08:00:41.525Z,99808.45
2019-03-31T08:05:51.327Z,99816.22
2019-03-31T08:08:21.255Z,99825.36
2019-03-31T08:10:51.524Z,99826.14
2019-03-31T08:13:21.742Z,99827.89
2019-03-31T08:15:51.803Z,99827.14
2019-03-31T08:18:21.759Z,99831.34
2019-03-31T08:21:30.826Z,99829.78
2019-03-31T08:27:10.321Z,99822.02
2019-03-31T08:29:40.212Z,99827.71
2019-03-31T08:32:10.196Z,99832.07
2019-03-31T08:35:19.152Z,99829.88
2019-03-31T08:40:50.461Z,99830.48
2019-03-31T08:43:59.428Z,99841.77
2019-03-31T08:47:08.383Z,99842.21
2019-03-31T08:49:49.725Z,99848.53
2019-03-31T08:58:30.703Z,99863.50
2019-03-31T09:01:04.788Z,99863.79
2019-03-31T09:03:34.771Z,99870.50
2019-03-31T09:06:04.706Z,99870.06
2019-03-31T09:08:34.559Z,99875.17
2019-03-31T09:11:43.607Z,99870.72
2019-03-31T09:17:22.959Z,99882.70
2019-03-31T09:23:02.148Z,99891.05
2019-03-31T09:25:32.092Z,99906.11
2019-03-31T09:28:02.177Z,99898.33
2019-03-31T09:30:32.197Z,99902.87
2019-03-31T09:33:02.512Z,99894.48
2019-03-31T09:35:32.351Z,99892.39
2019-03-31T09:38:02.438Z,99892.98
2019-03-31T09:40:32.438Z,99891.23
2019-03-31T09:43:02.362Z,99902.31
2019-03-31T09:45:32.349Z,99885.74
2019-03-31T09:48:02.405Z,99891.03
2019-03-31T09:50:32.325Z,99906.48
2019-03-31T09:53:02.585Z,99922.14
2019-03-31T09:55:32.581Z,99918.95
2019-03-31T09:58:02.555Z,99928.17
2019-03-31T10:00:49.804Z,99933.05
2019-03-31T10:03:21.020Z,99933.34
2019-03-31T10:05:51.362Z,99936.83
2019-03-31T10:08:22.443Z,99924.57
2019-03-31T10:10:52.595Z,99954.69
2019-03-31T10:13:22.514Z,99947.47
2019-03-31T10:15:52.562Z,99944.11
2019-03-31T10:18:22.595Z,99947.40
2019-03-31T10:20:52.569Z,99960.70
2019-03-31T10:23:22.512Z,99957.25
2019-03-31T10:25:52.455Z,99958.94
2019-03-31T10:31:28.205Z,99963.55
2019-03-31T10:37:31.676Z,99961.47
2019-03-31T10:45:53.187Z,99989.31
2019-03-31T10:49:02.220Z,100002.56
2019-03-31T10:51:32.292Z,100006.60
2019-03-31T10:57:03.661Z,100011.38
2019-03-31T10:59:33.720Z,100009.05
2019-03-31T11:07:55.099Z,99999.59
2019-03-31T11:10:43.848Z,99996.56
2019-03-31T11:19:30.146Z,100022.20
2019-03-31T11:24:58.211Z,100036.64
2019-03-31T11:27:28.207Z,100045.42
2019-03-31T11:29:58.178Z,100054.70
2019-03-31T11:35:25.065Z,100051.27
2019-03-31T11:41:04.279Z,100069.67
2019-03-31T11:43:34.331Z,100066.59
2019-03-31T11:46:06.003Z,100076.95
2019-03-31T11:48:36.022Z,100106.78
2019-03-31T11:57:11.688Z,100121.80
2019-03-31T12:00:20.733Z,100141.05
2019-03-31T12:03:09.607Z,100131.15
2019-03-31T12:05:39.703Z,100141.34
2019-03-31T12:08:48.899Z,100141.50
2019-03-31T12:14:28.422Z,100153.17
2019-03-31T12:16:58.404Z,100160.61
2019-03-31T12:20:07.378Z,100156.15
2019-03-31T12:22:37.542Z,100167.52
2019-03-31T12:28:03.946Z,100161.69
2019-03-31T12:31:12.872Z,100168.03
2019-03-31T12:36:38.228Z,100179.24
2019-03-31T12:39:29.680Z,100180.98
2019-03-31T12:44:55.189Z,100197.67
2019-03-31T12:50:14.131Z,100198.61
2019-03-31T12:52:46.925Z,100193.11
2019-03-31T12:55:16.084Z,100202.80
2019-03-31T12:57:46.088Z,100203.23
2019-03-31T13:03:25.138Z,100217.70
2019-03-31T13:05:55.328Z,100217.97
2019-03-31T13:08:25.168Z,100216.36
2019-03-31T13:10:55.148Z,100241.30
2019-03-31T13:13:25.168Z,100261.33
2019-03-31T13:16:13.922Z,100291.61
2019-03-31T13:27:20.864Z,100328.02
2019-03-31T13:29:51.670Z,100324.23
2019-03-31T13:33:00.640Z,100317.85
2019-03-31T13:38:40.837Z,100317.19
2019-03-31T13:41:11.493Z,100321.69
2019-03-31T13:43:41.925Z,100322.35
2019-03-31T13:46:11.895Z,100322.45
2019-03-31T13:48:41.976Z,100323.79
2019-03-31T13:51:11.959Z,100329.45
2019-03-31T13:53:41.844Z,100335.77
2019-03-31T13:56:11.856Z,100340.33
2019-03-31T13:58:42.485Z,100343.77
2019-03-31T14:01:12.578Z,100344.09
2019-03-31T14:03:42.493Z,100344.23
2019-03-31T14:06:51.496Z,100343.94
2019-03-31T14:09:21.796Z,100343.14
2019-03-31T14:11:52.571Z,100352.10
2019-03-31T14:14:22.700Z,100352.23
2019-03-31T14:22:51.518Z,100358.32
2019-03-31T14:28:30.617Z,100374.63
2019-03-31T14:31:00.669Z,100375.84
2019-03-31T14:33:30.751Z,100376.13
2019-03-31T14:39:17.002Z,100383.23
2019-03-31T14:44:41.609Z,100387.11
2019-03-31T14:51:06.755Z,100402.56
2019-03-31T14:56:17.784Z,100404.23
2019-03-31T14:58:47.912Z,100412.21
2019-03-31T15:04:30.703Z,100417.06
2019-03-31T15:07:01.732Z,100416.82
2019-03-31T15:10:10.918Z,100427.74
2019-03-31T15:12:41.243Z,100422.49
2019-03-31T15:15:11.508Z,100420.72
2019-03-31T15:17:41.692Z,100432.21
2019-03-31T15:20:12.417Z,100444.20
2019-03-31T15:22:42.778Z,100441.41
2019-03-31T15:25:12.924Z,100452.52
2019-03-31T15:27:43.244Z,100451.64
2019-03-31T15:30:52.367Z,100460.08
2019-03-31T15:33:22.330Z,100460.48
2019-03-31T15:38:48.678Z,100475.28
2019-03-31T15:41:21.326Z,100476.84
2019-03-31T15:43:50.558Z,100468.09
2019-03-31T15:46:20.592Z,100480.47
2019-03-31T15:52:08.602Z,100484.28
2019-03-31T15:57:46.336Z,100500.80
2019-03-31T16:00:17.851Z,100501.37
2019-03-31T16:02:47.752Z,100505.27
2019-03-31T16:05:17.987Z,100508.63
2019-03-31T16:08:27.012Z,100511.78
2019-03-31T16:11:07.567Z,100514.17
2019-03-31T16:13:37.251Z,100512.80
2019-03-31T16:16:06.620Z,100514.77
2019-03-31T16:18:36.015Z,100527.35
2019-03-31T16:21:05.396Z,100537.36
2019-03-31T16:23:34.831Z,100546.60
2019-03-31T16:26:04.339Z,100550.69
2019-03-31T16:37:05.253Z,100568.75
2019-03-31T16:39:38.050Z,100573.19
2019-03-31T16:42:27.972Z,100580.70
2019-03-31T16:44:58.662Z,100582.62
2019-03-31T16:47:28.218Z,100585.77
2019-03-31T16:49:57.729Z,100596.13
2019-03-31T16:52:27.344Z,100600.61
2019-03-31T16:54:56.911Z,100609.66
2019-03-31T16:57:26.569Z,100607.62
2019-03-31T16:59:56.675Z,100614.80
2019-03-31T17:02:26.636Z,100619.80
2019-03-31T17:04:56.694Z,100623.95
2019-03-31T17:07:27.063Z,100629.81
2019-03-31T17:09:57.450Z,100635.88
2019-03-31T17:12:27.442Z,100649.47
2019-03-31T17:14:58.373Z,100639.08
2019-03-31T17:17:28.524Z,100649.52
2019-03-31T17:19:58.346Z,100649.42
2019-03-31T17:22:28.316Z,100657.23
2019-03-31T17:24:58.073Z,100662.58
2019-03-31T17:27:27.741Z,100669.72
2019-03-31T17:29:57.611Z,100680.07
2019-03-31T17:32:27.536Z,100689.31
2019-03-31T17:34:57.987Z,100691.57
2019-03-31T17:37:30.425Z,100699.41
2019-03-31T17:40:06.377Z,100706.33
2019-03-31T17:42:32.190Z,100709.66
2019-03-31T17:45:01.616Z,100719.64
2019-03-31T17:47:31.020Z,100728.39
2019-03-31T17:50:01.490Z,100734.83
2019-03-31T17:52:30.894Z,100738.89
2019-03-31T17:55:00.442Z,100737.30
2019-03-31T17:57:29.884Z,100742.33
2019-03-31T17:59:59.682Z,100754.42
2019-03-31T18:02:29.293Z,100757.03
2019-03-31T18:05:38.185Z,100764.16
2019-03-31T18:08:08.172Z,100765.41
2019-03-31T18:11:17.197Z,100771.28
2019-03-31T18:13:46.817Z,100773.20
2019-03-31T18:16:16.250Z,100775.61
2019-03-31T18:18:45.686Z,100786.70
2019-03-31T18:21:15.126Z,100795.45
2019-03-31T18:23:44.595Z,100806.45
2019-03-31T18:26:53.264Z,100674.98
2019-03-31T18:29:23.217Z,100811.65
2019-03-31T18:31:52.563Z,100821.92
2019-03-31T18:35:01.261Z,100819.55
2019-03-31T18:37:50.091Z,100833.20
2019-03-31T18:40:59.022Z,100837.58
2019-03-31T18:43:28.567Z,100841.84
2019-03-31T18:48:46.666Z,100852.73
2019-03-31T18:51:55.356Z,100865.89
2019-03-31T18:54:43.736Z,100870.31
2019-03-31T18:57:32.498Z,100879.50
2019-03-31T19:00:13.130Z,100887.98
2019-03-31T19:05:56.781Z,100895.28
2019-03-31T19:08:43.857Z,100892.92
2019-03-31T19:11:44.700Z,100905.97
2019-03-31T19:14:29.455Z,100901.57
2019-03-31T19:25:47.352Z,100935.69
2019-03-31T19:28:27.779Z,100938.92
2019-03-31T19:31:36.493Z,100951.80
2019-03-31T19:37:25.654Z,100972.59
2019-03-31T19:40:32.804Z,100973.48
2019-03-31T19:52:19.355Z,101007.33
2019-03-31T19:55:07.734Z,101024.77
2019-03-31T19:57:48.497Z,101032.72
2019-03-31T20:00:36.815Z,101032.84
2019-03-31T20:06:12.784Z,101045.15
2019-03-31T20:09:01.107Z,101050.37
2019-03-31T20:11:49.634Z,101063.97
2019-03-31T20:17:17.098Z,101076.47
2019-03-31T20:20:05.424Z,101084.53
2019-03-31T20:25:55.452Z,101097.05
2019-03-31T20:28:44.131Z,101099.40
2019-03-31T20:34:33.931Z,101113.21
2019-03-31T20:37:21.385Z,101120.69
2019-03-31T20:40:21.945Z,101126.12
2019-03-31T20:43:08.663Z,101136.20
2019-03-31T20:45:38.105Z,101143.03
2019-03-31T20:48:07.531Z,101151.46
2019-03-31T20:50:37.001Z,101165.86
2019-03-31T20:53:06.435Z,101157.97
2019-03-31T20:55:35.794Z,101164.55
2019-03-31T20:58:05.180Z,101166.78
2019-03-31T21:00:34.722Z,101175.99
2019-03-31T21:03:04.234Z,101180.79
2019-03-31T21:05:33.821Z,101187.78
2019-03-31T21:08:03.277Z,101191.72
2019-03-31T21:10:32.849Z,101192.33
2019-03-31T21:13:02.357Z,101189.37
2019-03-31T21:24:48.308Z,101214.13
2019-03-31T21:31:05.675Z,101230.64
2019-03-31T21:36:49.834Z,101245.28
2019-03-31T21:39:58.507Z,101255.42
2019-03-31T21:42:28.084Z,101266.94
2019-03-31T21:44:57.501Z,101272.28
2019-03-31T21:47:27.056Z,101282.00
2019-03-31T21:49:56.586Z,101288.16
2019-03-31T21:52:26.101Z,101291.78
2019-03-31T21:54:55.571Z,101296.23
2019-03-31T22:00:52.449Z,101304.75
2019-03-31T22:06:23.727Z,101310.77
2019-03-31T22:09:06.416Z,101327.41
2019-03-31T22:11:35.908Z,101327.47
2019-03-31T22:17:24.541Z,101339.94
2019-03-31T22:22:55.547Z,101345.73
2019-03-31T22:25:24.147Z,101354.02
2019-03-31T22:30:48.918Z,101249.34
2019-03-31T22:33:18.410Z,101356.67
2019-03-31T22:38:42.932Z,101365.39
2019-03-31T22:41:12.450Z,101373.30
2019-03-31T22:43:41.904Z,101374.69
2019-03-31T22:46:54.383Z,101385.98
2019-03-31T22:49:21.839Z,101380.38
2019-03-31T22:51:51.315Z,101388.69
2019-03-31T22:57:34.671Z,101387.49
2019-03-31T23:03:12.749Z,101385.14
2019-03-31T23:05:42.109Z,101398.23
2019-03-31T23:08:50.813Z,101412.09
2019-03-31T23:14:21.762Z,101400.50
2019-03-31T23:16:51.201Z,101404.84
2019-03-31T23:19:20.545Z,101408.33
2019-03-31T23:27:41.416Z,101416.77
2019-03-31T23:33:11.997Z,101422.50
2019-03-31T23:39:29.374Z,101420.78
2019-03-31T23:41:58.867Z,101427.31
2019-03-31T23:44:29.947Z,101427.80
2019-03-31T23:50:05.512Z,101431.34
2019-03-31T23:52:34.980Z,101436.62
2019-03-31T23:55:04.392Z,101449.17
2019-03-31T23:58:13.124Z,101444.84
